Time,TemperatureF,DewpointF,PressureIn,WindDirection,WindDirectionDegrees,WindSpeedMPH,WindSpeedGustMPH,Humidity,HourlyPrecipIn,Conditions,Clouds,dailyrainin,SoftwareType,DateUTC
2013-06-10 00:07:00,71.6,71.3,29.87,SSW,202,0.0,-999.0,99,-99.99,,,0.00,Acu-Link.com,2013-06-10 04:07:00,
2013-06-10 00:22:00,71.6,71.3,29.88,SW,225,0.0,-999.0,99,-99.99,,,0.00,Acu-Link.com,2013-06-10 04:22:00,
2013-06-10 00:37:00,71.4,71.1,29.87,SW,225,0.0,-999.0,99,-99.99,,,0.00,Acu-Link.com,2013-06-10 04:37:00,
2013-06-10 00:52:00,71.4,71.1,29.87,WSW,247,0.0,-999.0,99,-99.99,,,0.00,Acu-Link.com,2013-06-10 04:52:00,
2013-06-10 01:07:00,71.2,70.9,29.87,WSW,247,0.0,-999.0,99,-99.99,,,0.00,Acu-Link.com,2013-06-10 05:07:00,
2013-06-10 01:23:00,71.2,70.9,29.86,WSW,247,0.0,-999.0,99,-99.99,,,0.00,Acu-Link.com,2013-06-10 05:23:00,
2013-06-10 01:38:00,71.2,70.9,29.86,WSW,247,0.0,-999.0,99,-99.99,,,0.00,Acu-Link.com,2013-06-10 05:38:00,
2013-06-10 01:54:00,71.2,70.9,29.85,South,180,0.0,-999.0,99,-99.99,,,0.00,Acu-Link.com,2013-06-10 05:54:00,
2013-06-10 02:09:00,71.2,70.9,29.84,SW,225,0.0,-999.0,99,-99.99,,,0.00,Acu-Link.com,2013-06-10 06:09:00,
2013-06-10 02:24:00,71.6,71.3,29.84,ESE,112,0.0,-999.0,99,-99.99,,,0.00,Acu-Link.com,2013-06-10 06:24:00,
2013-06-10 02:40:00,71.8,71.5,29.85,SW,225,0.0,-999.0,99,-99.99,,,0.00,Acu-Link.com,2013-06-10 06:40:00,
2013-06-10 02:55:00,72.0,71.7,29.84,South,180,1.7,-999.0,99,-99.99,,,0.00,Acu-Link.com,2013-06-10 06:55:00,
2013-06-10 03:10:00,72.0,71.7,29.84,SW,225,0.0,-999.0,99,-99.99,,,0.00,Acu-Link.com,2013-06-10 07:10:00,
2013-06-10 03:26:00,72.0,71.7,29.85,SSW,202,0.0,-999.0,99,-99.99,,,0.00,Acu-Link.com,2013-06-10 07:26:00,
2013-06-10 03:41:00,72.0,71.7,29.85,SSE,157,0.0,-999.0,99,-99.99,,,0.00,Acu-Link.com,2013-06-10 07:41:00,
2013-06-10 03:57:00,72.0,71.7,29.84,South,180,0.0,-999.0,99,-99.99,,,0.00,Acu-Link.com,2013-06-10 07:57:00,
2013-06-10 04:12:00,72.0,71.7,29.84,SW,225,1.7,-999.0,99,-99.99,,,0.00,Acu-Link.com,2013-06-10 08:12:00,
2013-06-10 04:27:00,72.0,71.7,29.84,SW,225,0.0,-999.0,99,-99.99,,,0.00,Acu-Link.com,2013-06-10 08:27:00,
2013-06-10 04:43:00,72.0,71.7,29.83,WSW,247,0.0,-999.0,99,-99.99,,,0.00,Acu-Link.com,2013-06-10 08:43:00,
2013-06-10 04:58:00,72.1,71.8,29.84,ENE,67,2.2,-999.0,99,-99.99,,,0.00,Acu-Link.com,2013-06-10 08:58:00,
2013-06-10 05:13:00,72.1,71.8,29.83,West,270,1.1,-999.0,99,-99.99,,,0.00,Acu-Link.com,2013-06-10 09:13:00,
2013-06-10 05:28:00,72.3,72.0,29.84,SSW,202,0.0,-999.0,99,-99.99,,,0.00,Acu-Link.com,2013-06-10 09:28:00,
2013-06-10 05:43:00,72.3,72.0,29.84,WSW,247,0.0,-999.0,99,-99.99,,,0.00,Acu-Link.com,2013-06-10 09:43:00,
2013-06-10 05:59:00,72.3,72.0,29.85,SW,225,1.7,-999.0,99,-99.99,,,0.00,Acu-Link.com,2013-06-10 09:59:00,
2013-06-10 06:15:00,72.3,72.0,29.84,ESE,112,1.7,-999.0,99,-99.99,,,0.00,Acu-Link.com,2013-06-10 10:15:00,
2013-06-10 06:30:00,72.3,72.0,29.83,SSW,202,0.0,-999.0,99,-99.99,,,0.00,Acu-Link.com,2013-06-10 10:30:00,
2013-06-10 06:45:00,72.5,72.2,29.84,SSW,202,0.0,-999.0,99,-99.99,,,0.00,Acu-Link.com,2013-06-10 10:45:00,
2013-06-10 07:00:00,72.5,72.2,29.83,WSW,247,2.2,-999.0,99,-99.99,,,0.00,Acu-Link.com,2013-06-10 11:00:00,
2013-06-10 07:17:00,72.5,72.2,29.85,SSE,157,1.1,-999.0,99,-99.99,,,0.00,Acu-Link.com,2013-06-10 11:17:00,
2013-06-10 07:32:00,72.7,72.4,29.85,South,180,1.7,-999.0,99,-99.99,,,0.00,Acu-Link.com,2013-06-10 11:32:00,
2013-06-10 07:48:00,72.7,72.4,29.84,South,180,0.0,-999.0,99,-99.99,,,0.00,Acu-Link.com,2013-06-10 11:48:00,
2013-06-10 08:03:00,72.9,72.6,29.84,East,90,2.2,-999.0,99,-99.99,,,0.00,Acu-Link.com,2013-06-10 12:03:00,
2013-06-10 08:18:00,73.0,72.4,29.85,SSW,202,1.7,-999.0,98,-99.99,,,0.00,Acu-Link.com,2013-06-10 12:18:00,
2013-06-10 08:34:00,73.2,72.6,29.85,South,180,1.1,-999.0,98,-99.99,,,0.00,Acu-Link.com,2013-06-10 12:34:00,
2013-06-10 08:49:00,73.6,72.7,29.86,West,270,3.2,-999.0,97,-99.99,,,0.01,Acu-Link.com,2013-06-10 12:49:00,
2013-06-10 09:04:00,73.8,72.9,29.85,SSW,202,1.1,-999.0,97,-99.99,,,0.01,Acu-Link.com,2013-06-10 13:04:00,
2013-06-10 09:19:00,74.1,72.9,29.86,WSW,247,0.0,-999.0,96,-99.99,,,0.01,Acu-Link.com,2013-06-10 13:19:00,
2013-06-10 09:34:00,75.4,73.5,29.85,SSE,157,1.1,-999.0,94,-99.99,,,0.01,Acu-Link.com,2013-06-10 13:34:00,
2013-06-10 09:49:00,76.1,73.9,29.85,SE,135,0.0,-999.0,93,-99.99,,,0.01,Acu-Link.com,2013-06-10 13:49:00,
2013-06-10 10:04:00,76.5,74.3,29.85,NNW,337,1.1,-999.0,93,-99.99,,,0.01,Acu-Link.com,2013-06-10 14:04:00,
2013-06-10 10:19:00,77.9,74.7,29.85,SSW,202,1.1,-999.0,90,-99.99,,,0.01,Acu-Link.com,2013-06-10 14:19:00,
2013-06-10 10:34:00,78.8,74.9,29.86,SW,225,2.7,-999.0,88,-99.99,,,0.01,Acu-Link.com,2013-06-10 14:34:00,
2013-06-10 10:50:00,79.7,74.8,29.84,West,270,2.7,-999.0,85,-99.99,,,0.01,Acu-Link.com,2013-06-10 14:50:00,
2013-06-10 11:05:00,79.7,75.1,29.84,North,0,2.2,-999.0,86,-99.99,,,0.01,Acu-Link.com,2013-06-10 15:05:00,
2013-06-10 11:20:00,80.8,75.1,29.84,SW,225,1.1,-999.0,83,-99.99,,,0.01,Acu-Link.com,2013-06-10 15:20:00,
2013-06-10 11:35:00,82.9,76.1,29.84,SSW,202,1.7,-999.0,80,-99.99,,,0.01,Acu-Link.com,2013-06-10 15:35:00,
2013-06-10 11:50:00,81.7,74.9,29.83,SW,225,2.7,-999.0,80,-99.99,,,0.01,Acu-Link.com,2013-06-10 15:50:00,
2013-06-10 12:05:00,80.1,74.1,29.83,WSW,247,2.7,-999.0,82,-99.99,,,0.01,Acu-Link.com,2013-06-10 16:05:00,
2013-06-10 12:20:00,76.6,72.1,29.82,South,180,2.2,-999.0,86,-99.99,,,0.01,Acu-Link.com,2013-06-10 16:20:00,
2013-06-10 12:35:00,75.4,71.3,29.85,WSW,247,1.7,-999.0,87,-99.99,,,0.01,Acu-Link.com,2013-06-10 16:35:00,
2013-06-10 12:50:00,74.3,70.8,29.82,SE,135,0.0,-999.0,89,-99.99,,,0.10,Acu-Link.com,2013-06-10 16:50:00,
2013-06-10 13:06:00,72.9,70.8,29.84,WNW,292,2.7,-999.0,93,-99.99,,,0.10,Acu-Link.com,2013-06-10 17:06:00,
2013-06-10 13:21:00,71.4,69.6,29.85,SW,225,2.7,-999.0,94,-99.99,,,0.77,Acu-Link.com,2013-06-10 17:21:00,